createdAt,value
2018-02-18T00:00:23.846Z,28.35
2018-02-18T00:02:51.580Z,30.08
2018-02-18T00:05:19.299Z,30.30
2018-02-18T00:07:47.088Z,30.48
2018-02-18T00:10:14.260Z,29.50
2018-02-18T00:12:41.342Z,30.40
2018-02-18T00:15:12.060Z,30.52
2018-02-18T00:17:39.113Z,32.55
2018-02-18T00:20:06.189Z,29.17
2018-02-18T00:22:33.243Z,29.10
2018-02-18T00:25:00.943Z,30.45
2018-02-18T00:27:28.003Z,32.58
2018-02-18T00:29:55.047Z,29.90
2018-02-18T00:32:22.039Z,28.87
2018-02-18T00:34:49.024Z,29.80
2018-02-18T00:37:16.096Z,29.95
2018-02-18T00:39:43.146Z,31.42
2018-02-18T00:42:10.351Z,29.40
2018-02-18T00:44:37.446Z,28.60
2018-02-18T00:47:05.372Z,29.48
2018-02-18T00:49:32.516Z,29.87
2018-02-18T00:51:59.629Z,29.45
2018-02-18T00:54:26.647Z,28.40
2018-02-18T00:56:53.613Z,30.02
2018-02-18T00:59:20.724Z,31.20
2018-02-18T01:01:48.537Z,33.05
2018-02-18T01:04:15.562Z,30.17
2018-02-18T01:06:42.608Z,31.92
2018-02-18T01:09:09.618Z,31.70
2018-02-18T01:11:36.727Z,30.90
2018-02-18T01:14:04.053Z,28.77
2018-02-18T01:16:31.883Z,30.33
2018-02-18T01:18:58.985Z,29.60
2018-02-18T01:21:26.425Z,32.50
2018-02-18T01:23:54.270Z,32.15
2018-02-18T01:26:21.277Z,33.75
2018-02-18T01:28:48.517Z,31.12
2018-02-18T01:31:15.903Z,32.63
2018-02-18T01:33:43.029Z,29.15
2018-02-18T01:36:10.166Z,31.02
2018-02-18T01:38:37.294Z,30.20
2018-02-18T01:41:05.246Z,29.40
2018-02-18T01:43:32.457Z,29.63
2018-02-18T01:45:59.633Z,30.92
2018-02-18T01:48:26.819Z,30.95
2018-02-18T01:50:54.225Z,30.95
2018-02-18T01:53:21.368Z,31.90
2018-02-18T01:55:48.591Z,30.60
2018-02-18T01:58:15.828Z,32.53
2018-02-18T02:00:43.821Z,32.88
2018-02-18T02:03:11.100Z,31.60
2018-02-18T02:05:38.182Z,28.98
2018-02-18T02:08:05.123Z,30.52
2018-02-18T02:10:32.056Z,30.05
2018-02-18T02:12:59.064Z,29.27
2018-02-18T02:15:25.948Z,29.83
2018-02-18T02:17:52.931Z,31.70
2018-02-18T02:20:19.956Z,31.98
2018-02-18T02:22:46.825Z,30.20
2018-02-18T02:25:13.805Z,30.60
2018-02-18T02:27:40.672Z,32.17
2018-02-18T02:30:07.570Z,30.85
2018-02-18T02:32:35.244Z,29.17
2018-02-18T02:35:02.925Z,28.48
2018-02-18T02:37:29.962Z,28.45
2018-02-18T02:39:56.939Z,29.63
2018-02-18T02:42:23.819Z,29.05
2018-02-18T02:44:50.767Z,29.67
2018-02-18T02:47:18.464Z,30.92
2018-02-18T02:49:45.436Z,29.42
2018-02-18T02:52:12.313Z,29.20
2018-02-18T02:54:39.303Z,27.92
2018-02-18T02:57:06.208Z,30.55
2018-02-18T02:59:33.158Z,27.83
2018-02-18T03:02:00.036Z,28.90
2018-02-18T03:04:26.916Z,28.45
2018-02-18T03:06:53.900Z,29.83
2018-02-18T03:09:20.812Z,28.70
2018-02-18T03:11:47.752Z,31.85
2018-02-18T03:14:14.729Z,27.27
2018-02-18T03:16:41.664Z,29.30
2018-02-18T03:19:08.592Z,30.08
2018-02-18T03:21:35.463Z,30.02
2018-02-18T03:24:02.393Z,29.83
2018-02-18T03:26:29.247Z,32.17
2018-02-18T03:28:56.174Z,30.00
2018-02-18T03:31:23.085Z,29.23
2018-02-18T03:33:50.040Z,30.95
2018-02-18T03:36:16.921Z,29.05
2018-02-18T03:38:43.997Z,30.40
2018-02-18T03:41:11.617Z,30.83
2018-02-18T03:43:38.499Z,30.10
2018-02-18T03:46:05.452Z,32.15
2018-02-18T03:48:32.393Z,29.60
2018-02-18T03:50:59.297Z,32.72
2018-02-18T03:53:26.234Z,29.45
2018-02-18T03:55:53.172Z,31.08
2018-02-18T03:58:20.129Z,30.35
2018-02-18T04:00:47.007Z,31.05
2018-02-18T04:03:13.928Z,32.53
2018-02-18T04:05:41.062Z,32.10
2018-02-18T04:08:08.012Z,28.80
2018-02-18T04:10:35.000Z,33.33
2018-02-18T04:13:01.936Z,32.35
2018-02-18T04:15:28.918Z,33.72
2018-02-18T04:17:56.612Z,33.90
2018-02-18T04:20:23.480Z,30.75
2018-02-18T04:22:50.428Z,32.03
2018-02-18T04:25:17.344Z,32.33
2018-02-18T04:27:44.315Z,30.92
2018-02-18T04:30:11.253Z,31.98
2018-02-18T04:32:38.136Z,32.63
2018-02-18T04:35:04.993Z,31.55
2018-02-18T04:37:31.916Z,34.17
2018-02-18T04:39:58.784Z,35.75
2018-02-18T04:42:25.758Z,31.23
2018-02-18T04:44:52.636Z,31.37
2018-02-18T04:47:19.614Z,33.45
2018-02-18T04:49:46.536Z,33.10
2018-02-18T04:52:13.408Z,34.63
2018-02-18T04:54:40.353Z,34.63
2018-02-18T04:57:07.226Z,33.63
2018-02-18T04:59:34.198Z,30.50
2018-02-18T05:02:01.054Z,35.50
2018-02-18T05:04:28.094Z,31.33
2018-02-18T05:06:55.001Z,33.45
2018-02-18T05:09:21.960Z,33.60
2018-02-18T05:11:48.984Z,33.55
2018-02-18T05:14:15.858Z,33.92
2018-02-18T05:16:42.800Z,31.92
2018-02-18T05:19:09.678Z,31.80
2018-02-18T05:21:36.633Z,33.28
2018-02-18T05:24:03.553Z,33.80
2018-02-18T05:26:32.446Z,33.95
2018-02-18T05:29:00.123Z,32.67
2018-02-18T05:31:27.059Z,37.05
2018-02-18T05:33:53.951Z,34.45
2018-02-18T05:36:20.907Z,32.53
2018-02-18T05:38:47.841Z,34.88
2018-02-18T05:41:14.732Z,33.25
2018-02-18T05:43:41.761Z,34.35
2018-02-18T05:46:08.699Z,33.15
2018-02-18T05:48:36.369Z,31.95
2018-02-18T05:51:03.384Z,34.97
2018-02-18T05:53:31.066Z,33.00
2018-02-18T05:55:58.750Z,36.42
2018-02-18T05:58:25.741Z,33.70
2018-02-18T06:00:52.647Z,33.38
2018-02-18T06:03:19.603Z,34.55
2018-02-18T06:05:46.611Z,34.08
2018-02-18T06:08:13.553Z,31.25
2018-02-18T06:10:40.505Z,31.02
2018-02-18T06:13:08.211Z,34.28
2018-02-18T06:15:35.097Z,32.35
2018-02-18T06:18:01.971Z,35.50
2018-02-18T06:20:29.668Z,33.60
2018-02-18T06:22:56.613Z,32.60
2018-02-18T06:25:23.580Z,34.40
2018-02-18T06:27:50.439Z,35.78
2018-02-18T06:30:17.330Z,38.78
2018-02-18T06:32:44.284Z,39.75
2018-02-18T06:35:11.265Z,35.33
2018-02-18T06:37:38.144Z,34.78
2018-02-18T06:40:05.087Z,32.33
2018-02-18T06:42:31.968Z,39.75
2018-02-18T06:44:58.904Z,33.95
2018-02-18T06:47:25.851Z,34.35
2018-02-18T06:49:52.818Z,36.22
2018-02-18T06:52:19.807Z,35.60
2018-02-18T06:54:46.749Z,33.67
2018-02-18T06:57:13.749Z,32.45
2018-02-18T06:59:40.735Z,34.75
2018-02-18T07:02:07.615Z,32.05
2018-02-18T07:04:35.240Z,33.53
2018-02-18T07:07:02.166Z,36.63
2018-02-18T07:09:29.119Z,36.53
2018-02-18T07:11:56.239Z,32.15
2018-02-18T07:14:23.224Z,38.30
2018-02-18T07:16:50.218Z,36.60
2018-02-18T07:19:17.905Z,37.45
2018-02-18T07:21:44.799Z,34.85
2018-02-18T07:24:11.739Z,31.90
2018-02-18T07:26:38.627Z,30.92
2018-02-18T07:29:05.516Z,32.45
2018-02-18T07:31:32.463Z,29.17
2018-02-18T07:33:59.414Z,28.35
2018-02-18T07:36:26.355Z,32.50
2018-02-18T07:38:53.259Z,29.50
2018-02-18T07:41:20.988Z,29.92
2018-02-18T07:43:47.878Z,26.40
2018-02-18T07:46:14.772Z,27.67
2018-02-18T07:48:41.786Z,26.30
2018-02-18T07:51:08.733Z,23.08
2018-02-18T07:53:35.694Z,26.30
2018-02-18T07:56:02.602Z,29.35
2018-02-18T07:58:29.494Z,25.33
2018-02-18T08:00:56.440Z,25.30
2018-02-18T08:03:23.346Z,30.17
2018-02-18T08:05:50.284Z,25.62
2018-02-18T08:08:17.160Z,27.45
2018-02-18T08:10:44.099Z,24.98
2018-02-18T08:13:11.050Z,28.20
2018-02-18T08:15:37.931Z,26.37
2018-02-18T08:18:04.908Z,24.30
2018-02-18T08:20:31.938Z,27.62
2018-02-18T08:22:59.558Z,28.12
2018-02-18T08:25:26.513Z,27.15
2018-02-18T08:27:53.464Z,26.07
2018-02-18T08:30:20.432Z,24.83
2018-02-18T08:32:47.379Z,28.50
2018-02-18T08:35:14.282Z,26.60
2018-02-18T08:37:41.163Z,27.53
2018-02-18T08:40:08.120Z,25.73
2018-02-18T08:42:34.993Z,27.63
2018-02-18T08:45:01.940Z,28.03
2018-02-18T08:47:29.675Z,30.13
2018-02-18T08:49:56.568Z,31.70
2018-02-18T08:52:23.533Z,31.77
2018-02-18T08:54:50.413Z,29.00
2018-02-18T08:57:17.369Z,29.07
2018-02-18T08:59:44.984Z,31.37
2018-02-18T09:02:11.956Z,32.37
2018-02-18T09:04:38.838Z,31.90
2018-02-18T09:07:05.804Z,30.47
2018-02-18T09:09:32.717Z,33.50
2018-02-18T09:11:59.868Z,34.47
2018-02-18T09:14:27.004Z,32.13
2018-02-18T09:16:54.044Z,30.43
2018-02-18T09:19:21.170Z,32.20
2018-02-18T09:21:50.404Z,32.47
2018-02-18T09:24:18.257Z,33.00
2018-02-18T09:26:55.517Z,32.07
2018-02-18T09:29:32.630Z,31.43
2018-02-18T09:32:11.334Z,31.70
2018-02-18T09:34:50.195Z,33.60
2018-02-18T09:37:31.003Z,31.23
2018-02-18T09:40:01.387Z,35.10
2018-02-18T09:42:38.661Z,33.23
2018-02-18T09:45:17.498Z,34.83
2018-02-18T09:47:56.266Z,35.77
2018-02-18T09:50:34.595Z,33.77
2018-02-18T09:53:16.620Z,32.50
2018-02-18T09:55:54.263Z,34.43
2018-02-18T09:58:31.999Z,32.70
2018-02-18T10:00:59.656Z,32.87
2018-02-18T10:03:26.614Z,33.47
2018-02-18T10:05:54.641Z,32.90
2018-02-18T10:08:21.890Z,32.70
2018-02-18T10:10:49.622Z,34.23
2018-02-18T10:13:28.044Z,32.60
2018-02-18T10:18:21.768Z,34.77
2018-02-18T10:20:52.155Z,35.60
2018-02-18T10:23:22.352Z,35.77
2018-02-18T10:25:51.320Z,32.10
2018-02-18T10:28:21.891Z,32.53
2018-02-18T10:30:52.059Z,29.87
2018-02-18T10:33:19.882Z,31.03
2018-02-18T10:35:46.942Z,30.70
2018-02-18T10:38:16.084Z,32.07
2018-02-18T10:40:45.379Z,31.90
2018-02-18T10:43:14.787Z,28.53
2018-02-18T10:45:42.800Z,31.10
2018-02-18T10:48:11.329Z,28.57
2018-02-18T10:50:39.933Z,28.17
2018-02-18T10:53:08.977Z,27.90
2018-02-18T10:55:37.813Z,27.30
2018-02-18T10:58:08.162Z,29.97
2018-02-18T11:00:39.721Z,29.43
2018-02-18T11:03:09.919Z,28.80
2018-02-18T11:05:39.960Z,26.93
2018-02-18T11:08:13.166Z,27.80
2018-02-18T11:10:46.164Z,29.00
2018-02-18T11:13:14.563Z,27.43
2018-02-18T11:15:48.355Z,28.03
2018-02-18T11:18:20.586Z,27.10
2018-02-18T11:21:02.768Z,25.60
2018-02-18T11:26:22.381Z,25.80
2018-02-18T11:29:04.527Z,25.20
2018-02-18T11:31:43.331Z,24.87
2018-02-18T11:34:24.848Z,24.83
2018-02-18T11:37:01.990Z,24.87
2018-02-18T11:39:37.196Z,24.67
2018-02-18T11:42:13.391Z,22.53
2018-02-18T11:44:53.970Z,26.70
2018-02-18T11:47:35.519Z,24.13
2018-02-18T11:50:10.331Z,22.30
2018-02-18T11:52:42.440Z,21.90
2018-02-18T11:55:19.753Z,25.67
2018-02-18T11:57:56.346Z,22.77
2018-02-18T12:00:31.489Z,23.03
2018-02-18T12:03:09.887Z,21.80
2018-02-18T12:05:47.462Z,20.23
2018-02-18T12:08:26.340Z,20.80
2018-02-18T12:11:00.074Z,20.20
2018-02-18T12:13:34.899Z,19.57
2018-02-18T12:16:10.093Z,19.60
2018-02-18T12:18:43.019Z,19.80
2018-02-18T12:21:20.852Z,19.87
2018-02-18T12:23:56.701Z,19.10
2018-02-18T12:26:34.714Z,18.43
2018-02-18T12:29:14.696Z,16.57
2018-02-18T12:31:42.272Z,17.50
2018-02-18T12:34:09.213Z,18.63
2018-02-18T12:36:36.301Z,17.33
2018-02-18T12:39:03.280Z,17.43
2018-02-18T12:41:34.823Z,18.50
2018-02-18T12:44:01.955Z,17.08
2018-02-18T12:46:32.203Z,17.30
2018-02-18T12:48:59.092Z,15.93
2018-02-18T12:51:26.039Z,18.70
2018-02-18T12:53:53.704Z,19.30
2018-02-18T12:56:23.033Z,18.10
2018-02-18T12:58:50.506Z,17.60
2018-02-18T13:01:25.815Z,17.60
2018-02-18T13:06:42.160Z,17.27
2018-02-18T13:09:13.872Z,18.63
2018-02-18T13:11:40.840Z,18.20
2018-02-18T13:14:08.521Z,16.83
2018-02-18T13:16:35.408Z,18.50
2018-02-18T13:19:02.417Z,18.33
2018-02-18T13:21:29.296Z,17.90
2018-02-18T13:23:56.240Z,18.73
2018-02-18T13:26:23.193Z,20.83
2018-02-18T13:28:50.812Z,20.47
2018-02-18T13:31:17.710Z,19.10
2018-02-18T13:33:44.656Z,18.47
2018-02-18T13:36:11.590Z,19.30
2018-02-18T13:38:38.548Z,19.37
2018-02-18T13:41:05.439Z,19.70
2018-02-18T13:43:32.388Z,20.20
2018-02-18T13:46:00.048Z,18.50
2018-02-18T13:48:26.980Z,18.70
2018-02-18T13:50:54.724Z,19.33
2018-02-18T13:53:21.610Z,17.70
2018-02-18T13:55:48.577Z,17.37
2018-02-18T13:58:15.468Z,18.47
2018-02-18T14:00:42.327Z,18.23
2018-02-18T14:03:09.286Z,21.53
2018-02-18T14:05:36.147Z,17.70
2018-02-18T14:08:03.087Z,18.33
2018-02-18T14:10:29.955Z,19.00
2018-02-18T14:12:56.975Z,19.57
2018-02-18T14:15:23.852Z,17.40
2018-02-18T14:17:50.741Z,17.20
2018-02-18T14:20:18.424Z,17.50
2018-02-18T14:22:45.474Z,18.87
2018-02-18T14:25:13.205Z,17.37
2018-02-18T14:27:40.076Z,16.70
2018-02-18T14:30:07.776Z,19.13
2018-02-18T14:32:34.680Z,16.70
2018-02-18T14:35:02.364Z,14.70
2018-02-18T14:37:29.830Z,16.17
2018-02-18T14:39:56.768Z,15.07
2018-02-18T14:42:35.690Z,15.87
2018-02-18T14:45:14.716Z,15.57
2018-02-18T14:47:54.571Z,16.47
2018-02-18T14:50:37.074Z,15.87
2018-02-18T14:53:16.216Z,14.67
2018-02-18T14:55:55.108Z,17.23
2018-02-18T14:58:21.984Z,17.23
2018-02-18T15:00:48.945Z,18.23
2018-02-18T15:03:15.958Z,17.63
2018-02-18T15:05:42.891Z,16.60
2018-02-18T15:08:09.833Z,18.30
2018-02-18T15:10:36.712Z,17.73
2018-02-18T15:13:03.732Z,16.63
2018-02-18T15:15:30.756Z,17.60
2018-02-18T15:17:57.640Z,15.00
2018-02-18T15:20:24.580Z,16.17
2018-02-18T15:22:52.287Z,16.27
2018-02-18T15:25:19.604Z,16.07
2018-02-18T15:27:47.729Z,16.67
2018-02-18T15:30:14.726Z,16.47
2018-02-18T15:32:42.342Z,14.43
2018-02-18T15:35:09.333Z,15.53
2018-02-18T15:37:36.987Z,15.00
2018-02-18T15:40:04.685Z,14.20
2018-02-18T15:42:31.780Z,15.67
2018-02-18T15:44:58.730Z,15.20
2018-02-18T15:47:25.644Z,15.00
2018-02-18T15:49:52.708Z,15.47
2018-02-18T15:52:19.803Z,15.33
2018-02-18T15:54:46.769Z,17.27
2018-02-18T15:57:15.020Z,16.07
2018-02-18T15:59:42.053Z,13.87
2018-02-18T16:02:09.839Z,15.95
2018-02-18T16:04:39.175Z,15.50
2018-02-18T16:07:07.697Z,13.47
2018-02-18T16:09:38.630Z,16.97
2018-02-18T16:12:07.411Z,14.87
2018-02-18T16:14:42.901Z,17.43
2018-02-18T16:17:10.399Z,17.55
2018-02-18T16:19:37.415Z,16.52
2018-02-18T16:22:07.192Z,15.20
2018-02-18T16:24:35.801Z,16.98
2018-02-18T16:27:04.171Z,17.30
2018-02-18T16:29:32.426Z,17.27
2018-02-18T16:32:00.701Z,15.32
2018-02-18T16:34:27.776Z,17.75
2018-02-18T16:36:54.718Z,15.88
2018-02-18T16:39:21.610Z,17.48
2018-02-18T16:41:49.799Z,16.98
2018-02-18T16:44:18.079Z,18.17
2018-02-18T16:46:45.780Z,18.87
2018-02-18T16:49:13.953Z,21.35
2018-02-18T16:51:41.001Z,23.38
2018-02-18T16:54:09.263Z,20.50
2018-02-18T16:56:37.624Z,18.25
2018-02-18T16:59:05.688Z,17.70
2018-02-18T17:01:33.195Z,18.62
2018-02-18T17:04:02.372Z,19.02
2018-02-18T17:06:29.368Z,21.15
2018-02-18T17:08:56.324Z,19.92
2018-02-18T17:11:24.124Z,20.70
2018-02-18T17:13:52.395Z,24.37
2018-02-18T17:16:19.435Z,22.85
2018-02-18T17:18:46.416Z,21.20
2018-02-18T17:21:13.463Z,20.88
2018-02-18T17:23:40.412Z,22.42
2018-02-18T17:26:07.351Z,22.60
2018-02-18T17:28:34.225Z,22.48
2018-02-18T17:31:01.282Z,28.50
2018-02-18T17:33:28.192Z,23.50
2018-02-18T17:35:55.158Z,21.42
2018-02-18T17:38:22.051Z,21.85
2018-02-18T17:40:49.019Z,20.77
2018-02-18T17:43:24.363Z,22.48
2018-02-18T17:46:02.765Z,24.52
2018-02-18T17:48:30.160Z,22.73
2018-02-18T17:50:57.133Z,22.60
2018-02-18T17:56:19.736Z,21.17
2018-02-18T17:58:47.496Z,24.12
2018-02-18T18:01:14.685Z,24.12
2018-02-18T18:03:41.837Z,20.48
2018-02-18T18:06:08.915Z,20.45
2018-02-18T18:08:36.356Z,23.05
2018-02-18T18:11:03.576Z,22.80
2018-02-18T18:13:30.698Z,25.10
2018-02-18T18:15:58.037Z,32.08
2018-02-18T18:18:26.205Z,27.00
2018-02-18T18:20:53.531Z,27.90
2018-02-18T18:23:24.406Z,25.80
2018-02-18T18:25:59.367Z,25.58
2018-02-18T18:28:30.748Z,28.27
2018-02-18T18:30:58.682Z,25.37
2018-02-18T18:33:25.643Z,28.85
2018-02-18T18:35:52.765Z,24.50
2018-02-18T18:38:19.873Z,26.15
2018-02-18T18:41:01.571Z,24.60
2018-02-18T18:43:42.324Z,23.40
2018-02-18T18:46:26.416Z,25.33
2018-02-18T18:49:08.746Z,22.35
2018-02-18T18:51:50.341Z,22.20
2018-02-18T18:54:31.619Z,22.48
2018-02-18T18:57:04.112Z,20.30
2018-02-18T18:59:45.887Z,23.27
2018-02-18T19:02:26.664Z,22.30
2018-02-18T19:05:05.905Z,22.58
2018-02-18T19:07:45.948Z,20.30
2018-02-18T19:10:28.479Z,20.30
2018-02-18T19:13:08.993Z,21.92
2018-02-18T19:15:50.986Z,23.42
2018-02-18T19:18:26.700Z,24.15
2018-02-18T19:21:11.853Z,27.62
2018-02-18T19:23:53.476Z,26.27
2018-02-18T19:26:36.784Z,26.55
2018-02-18T19:29:17.083Z,19.30
2018-02-18T19:31:58.741Z,22.02
2018-02-18T19:34:39.246Z,21.85
2018-02-18T19:37:07.365Z,22.95
2018-02-18T19:39:34.616Z,27.95
2018-02-18T19:42:14.197Z,22.13
2018-02-18T19:44:55.627Z,22.02
2018-02-18T19:47:34.322Z,19.87
2018-02-18T19:50:08.253Z,18.92
2018-02-18T19:52:48.209Z,19.83
2018-02-18T19:55:28.673Z,19.30
2018-02-18T19:58:09.751Z,19.73
2018-02-18T20:00:39.524Z,19.50
2018-02-18T20:03:21.182Z,21.55
2018-02-18T20:06:02.880Z,22.35
2018-02-18T20:08:43.899Z,19.65
2018-02-18T20:11:24.589Z,20.00
2018-02-18T20:14:05.512Z,22.62
2018-02-18T20:16:47.017Z,24.87
2018-02-18T20:19:23.966Z,22.85
2018-02-18T20:22:05.688Z,18.90
2018-02-18T20:24:48.020Z,21.83
2018-02-18T20:27:28.536Z,21.50
2018-02-18T20:32:48.601Z,21.77
2018-02-18T20:35:29.109Z,22.30
2018-02-18T20:37:57.446Z,23.50
2018-02-18T20:40:34.873Z,23.58
2018-02-18T20:43:15.198Z,22.15
2018-02-18T20:45:55.958Z,20.85
2018-02-18T20:48:36.633Z,22.17
2018-02-18T20:51:19.482Z,21.12
2018-02-18T20:54:01.185Z,23.92
2018-02-18T20:56:44.835Z,21.87
2018-02-18T21:02:07.662Z,20.65
2018-02-18T21:04:45.932Z,23.75
2018-02-18T21:07:27.145Z,20.37
2018-02-18T21:10:07.892Z,20.00
2018-02-18T21:12:49.471Z,19.98
2018-02-18T21:15:29.974Z,19.60
2018-02-18T21:18:10.786Z,19.67
2018-02-18T21:20:51.619Z,20.92
2018-02-18T21:23:33.953Z,20.15
2018-02-18T21:26:01.850Z,21.02
2018-02-18T21:28:30.988Z,20.05
2018-02-18T21:31:12.425Z,21.45
2018-02-18T21:33:48.841Z,21.23
2018-02-18T21:36:28.149Z,21.55
2018-02-18T21:41:52.289Z,21.27
2018-02-18T21:44:33.286Z,21.23
2018-02-18T21:47:14.261Z,21.70
2018-02-18T21:49:45.581Z,21.15
2018-02-18T21:52:14.674Z,20.75
2018-02-18T21:54:43.975Z,21.60
2018-02-18T21:57:12.188Z,22.17
2018-02-18T21:59:39.368Z,26.08
2018-02-18T22:02:06.657Z,31.85
2018-02-18T22:04:33.821Z,25.10
2018-02-18T22:07:00.957Z,24.40
2018-02-18T22:09:31.455Z,25.15
2018-02-18T22:12:00.126Z,22.90
2018-02-18T22:14:30.285Z,25.10
2018-02-18T22:17:09.211Z,24.67
2018-02-18T22:19:50.620Z,24.75
2018-02-18T22:22:31.417Z,29.02
2018-02-18T22:25:00.621Z,27.90
2018-02-18T22:27:40.361Z,26.33
2018-02-18T22:30:21.579Z,26.27
2018-02-18T22:33:03.518Z,26.92
2018-02-18T22:35:43.005Z,28.55
2018-02-18T22:41:07.982Z,28.02
2018-02-18T22:43:36.713Z,26.92
2018-02-18T22:46:03.757Z,26.45
2018-02-18T22:48:30.727Z,25.08
2018-02-18T22:50:57.712Z,26.20
2018-02-18T22:53:24.664Z,25.10
2018-02-18T22:55:51.900Z,25.77
2018-02-18T22:58:19.672Z,25.10
2018-02-18T23:00:46.612Z,25.05
2018-02-18T23:03:14.563Z,22.98
2018-02-18T23:05:47.619Z,25.20
2018-02-18T23:08:14.897Z,23.90
2018-02-18T23:10:42.121Z,24.20
2018-02-18T23:13:09.305Z,23.20
2018-02-18T23:15:36.517Z,24.23
2018-02-18T23:18:03.571Z,26.00
2018-02-18T23:20:51.607Z,25.33
2018-02-18T23:23:18.576Z,23.45
2018-02-18T23:25:45.689Z,27.87
2018-02-18T23:28:12.687Z,24.83
2018-02-18T23:30:39.680Z,24.23
2018-02-18T23:33:06.950Z,25.35
2018-02-18T23:35:34.135Z,27.85
2018-02-18T23:38:01.202Z,25.50
2018-02-18T23:40:29.122Z,27.37
2018-02-18T23:42:56.994Z,28.33
2018-02-18T23:45:24.205Z,27.50
2018-02-18T23:47:51.285Z,27.58
2018-02-18T23:50:18.335Z,29.08
2018-02-18T23:52:45.448Z,29.45
2018-02-18T23:55:12.455Z,28.38
2018-02-18T23:57:39.387Z,27.25
